sensor_id;sensor_type;location;lat;lon;timestamp;P1;durP1;ratioP1;P2;durP2;ratioP2
20154;SDS011;10238;49.556;10.956;2022-10-15T00:02:45;7.18;;;5.20;;
20154;SDS011;10238;49.556;10.956;2022-10-15T00:05:35;9.55;;;5.85;;
20154;SDS011;10238;49.556;10.956;2022-10-15T00:08:23;9.35;;;5.78;;
20154;SDS011;10238;49.556;10.956;2022-10-15T00:11:12;7.40;;;5.30;;
20154;SDS011;10238;49.556;10.956;2022-10-15T00:14:02;6.80;;;5.47;;
20154;SDS011;10238;49.556;10.956;2022-10-15T00:16:52;9.07;;;5.75;;
20154;SDS011;10238;49.556;10.956;2022-10-15T00:19:40;6.07;;;5.03;;
20154;SDS011;10238;49.556;10.956;2022-10-15T00:22:35;10.07;;;5.90;;
20154;SDS011;10238;49.556;10.956;2022-10-15T00:25:23;6.03;;;5.15;;
20154;SDS011;10238;49.556;10.956;2022-10-15T00:28:11;5.65;;;4.97;;
20154;SDS011;10238;49.556;10.956;2022-10-15T00:30:59;7.15;;;5.25;;
20154;SDS011;10238;49.556;10.956;2022-10-15T00:33:56;5.60;;;4.97;;
20154;SDS011;10238;49.556;10.956;2022-10-15T00:36:53;7.25;;;4.88;;
20154;SDS011;10238;49.556;10.956;2022-10-15T00:39:41;5.82;;;5.13;;
20154;SDS011;10238;49.556;10.956;2022-10-15T00:42:29;6.57;;;4.60;;
20154;SDS011;10238;49.556;10.956;2022-10-15T00:45:17;7.82;;;4.82;;
20154;SDS011;10238;49.556;10.956;2022-10-15T00:48:05;6.90;;;5.35;;
20154;SDS011;10238;49.556;10.956;2022-10-15T00:50:56;7.97;;;5.25;;
20154;SDS011;10238;49.556;10.956;2022-10-15T00:53:47;6.10;;;4.88;;
20154;SDS011;10238;49.556;10.956;2022-10-15T00:56:36;7.43;;;4.95;;
20154;SDS011;10238;49.556;10.956;2022-10-15T00:59:26;6.20;;;4.85;;
20154;SDS011;10238;49.556;10.956;2022-10-15T01:02:17;6.60;;;4.93;;
20154;SDS011;10238;49.556;10.956;2022-10-15T01:05:07;7.60;;;4.65;;
20154;SDS011;10238;49.556;10.956;2022-10-15T01:07:57;6.72;;;4.88;;
20154;SDS011;10238;49.556;10.956;2022-10-15T01:10:49;7.10;;;4.20;;
20154;SDS011;10238;49.556;10.956;2022-10-15T01:13:46;6.15;;;3.92;;
20154;SDS011;10238;49.556;10.956;2022-10-15T01:16:46;7.65;;;4.50;;
20154;SDS011;10238;49.556;10.956;2022-10-15T01:19:46;5.40;;;4.07;;
20154;SDS011;10238;49.556;10.956;2022-10-15T01:23:08;4.82;;;4.22;;
20154;SDS011;10238;49.556;10.956;2022-10-15T01:26:28;5.55;;;5.05;;
20154;SDS011;10238;49.556;10.956;2022-10-15T01:30:21;7.80;;;4.30;;
20154;SDS011;10238;49.556;10.956;2022-10-15T01:33:21;5.10;;;4.63;;
20154;SDS011;10238;49.556;10.956;2022-10-15T01:36:15;6.10;;;4.30;;
20154;SDS011;10238;49.556;10.956;2022-10-15T01:39:09;4.72;;;4.20;;
20154;SDS011;10238;49.556;10.956;2022-10-15T01:44:52;4.47;;;3.70;;
20154;SDS011;10238;49.556;10.956;2022-10-15T01:47:48;6.95;;;4.20;;
20154;SDS011;10238;49.556;10.956;2022-10-15T01:50:41;5.53;;;4.20;;
20154;SDS011;10238;49.556;10.956;2022-10-15T01:53:35;5.90;;;3.83;;
20154;SDS011;10238;49.556;10.956;2022-10-15T01:56:25;4.90;;;3.92;;
20154;SDS011;10238;49.556;10.956;2022-10-15T01:59:14;5.38;;;3.90;;
20154;SDS011;10238;49.556;10.956;2022-10-15T02:02:05;5.50;;;3.55;;
20154;SDS011;10238;49.556;10.956;2022-10-15T02:04:55;4.65;;;3.38;;
20154;SDS011;10238;49.556;10.956;2022-10-15T02:07:46;7.50;;;3.63;;
20154;SDS011;10238;49.556;10.956;2022-10-15T02:10:42;4.15;;;3.75;;
20154;SDS011;10238;49.556;10.956;2022-10-15T02:13:38;5.22;;;2.95;;
20154;SDS011;10238;49.556;10.956;2022-10-15T02:16:37;4.63;;;3.53;;
20154;SDS011;10238;49.556;10.956;2022-10-15T02:19:29;3.75;;;3.20;;
20154;SDS011;10238;49.556;10.956;2022-10-15T02:22:27;4.90;;;3.10;;
20154;SDS011;10238;49.556;10.956;2022-10-15T02:25:23;3.58;;;3.13;;
20154;SDS011;10238;49.556;10.956;2022-10-15T02:28:14;4.70;;;2.88;;
20154;SDS011;10238;49.556;10.956;2022-10-15T02:31:04;3.00;;;2.72;;
20154;SDS011;10238;49.556;10.956;2022-10-15T02:33:57;5.60;;;2.80;;
20154;SDS011;10238;49.556;10.956;2022-10-15T02:36:52;3.10;;;2.80;;
20154;SDS011;10238;49.556;10.956;2022-10-15T02:39:44;2.88;;;2.67;;
20154;SDS011;10238;49.556;10.956;2022-10-15T02:42:32;3.15;;;2.50;;
20154;SDS011;10238;49.556;10.956;2022-10-15T02:45:20;3.15;;;2.88;;
20154;SDS011;10238;49.556;10.956;2022-10-15T02:48:08;3.20;;;2.90;;
20154;SDS011;10238;49.556;10.956;2022-10-15T02:50:56;3.30;;;3.00;;
20154;SDS011;10238;49.556;10.956;2022-10-15T02:53:44;3.70;;;2.90;;
20154;SDS011;10238;49.556;10.956;2022-10-15T02:56:33;2.55;;;2.35;;
20154;SDS011;10238;49.556;10.956;2022-10-15T02:59:23;2.95;;;2.50;;
20154;SDS011;10238;49.556;10.956;2022-10-15T03:02:11;5.13;;;2.70;;
20154;SDS011;10238;49.556;10.956;2022-10-15T03:05:06;6.05;;;2.47;;
20154;SDS011;10238;49.556;10.956;2022-10-15T03:07:54;2.70;;;2.33;;
20154;SDS011;10238;49.556;10.956;2022-10-15T03:10:51;2.47;;;2.28;;
20154;SDS011;10238;49.556;10.956;2022-10-15T03:13:43;2.97;;;2.55;;
20154;SDS011;10238;49.556;10.956;2022-10-15T03:16:32;3.35;;;2.30;;
20154;SDS011;10238;49.556;10.956;2022-10-15T03:19:20;3.17;;;2.30;;
20154;SDS011;10238;49.556;10.956;2022-10-15T03:22:08;3.22;;;1.90;;
20154;SDS011;10238;49.556;10.956;2022-10-15T03:24:58;3.65;;;2.60;;
20154;SDS011;10238;49.556;10.956;2022-10-15T03:27:48;2.08;;;1.98;;
20154;SDS011;10238;49.556;10.956;2022-10-15T03:30:39;2.20;;;2.00;;
20154;SDS011;10238;49.556;10.956;2022-10-15T03:33:28;2.15;;;1.90;;
20154;SDS011;10238;49.556;10.956;2022-10-15T03:36:16;2.38;;;2.05;;
20154;SDS011;10238;49.556;10.956;2022-10-15T03:39:05;3.03;;;2.08;;
20154;SDS011;10238;49.556;10.956;2022-10-15T03:41:53;5.15;;;2.08;;
20154;SDS011;10238;49.556;10.956;2022-10-15T03:44:43;2.70;;;1.95;;
20154;SDS011;10238;49.556;10.956;2022-10-15T03:47:32;4.50;;;2.00;;
20154;SDS011;10238;49.556;10.956;2022-10-15T03:50:22;1.75;;;1.63;;
20154;SDS011;10238;49.556;10.956;2022-10-15T03:53:10;1.92;;;1.80;;
20154;SDS011;10238;49.556;10.956;2022-10-15T03:56:02;1.90;;;1.80;;
20154;SDS011;10238;49.556;10.956;2022-10-15T03:58:50;1.98;;;1.88;;
20154;SDS011;10238;49.556;10.956;2022-10-15T04:01:42;2.95;;;1.75;;
20154;SDS011;10238;49.556;10.956;2022-10-15T04:04:31;1.60;;;1.50;;
20154;SDS011;10238;49.556;10.956;2022-10-15T04:07:19;3.35;;;1.70;;
20154;SDS011;10238;49.556;10.956;2022-10-15T04:10:07;1.55;;;1.45;;
20154;SDS011;10238;49.556;10.956;2022-10-15T04:13:00;2.03;;;1.60;;
20154;SDS011;10238;49.556;10.956;2022-10-15T04:15:49;1.42;;;1.42;;
20154;SDS011;10238;49.556;10.956;2022-10-15T04:18:37;3.28;;;1.60;;
20154;SDS011;10238;49.556;10.956;2022-10-15T04:21:29;1.35;;;1.35;;
20154;SDS011;10238;49.556;10.956;2022-10-15T04:24:17;1.58;;;1.48;;
20154;SDS011;10238;49.556;10.956;2022-10-15T04:27:08;2.85;;;1.60;;
20154;SDS011;10238;49.556;10.956;2022-10-15T04:29:59;1.60;;;1.50;;
20154;SDS011;10238;49.556;10.956;2022-10-15T04:32:53;1.42;;;1.33;;
20154;SDS011;10238;49.556;10.956;2022-10-15T04:35:56;1.88;;;1.40;;
20154;SDS011;10238;49.556;10.956;2022-10-15T04:38:50;1.15;;;1.15;;
20154;SDS011;10238;49.556;10.956;2022-10-15T04:41:40;1.40;;;1.30;;
20154;SDS011;10238;49.556;10.956;2022-10-15T04:44:29;2.95;;;1.48;;
20154;SDS011;10238;49.556;10.956;2022-10-15T04:47:17;4.78;;;1.50;;
20154;SDS011;10238;49.556;10.956;2022-10-15T04:50:07;2.58;;;1.48;;
20154;SDS011;10238;49.556;10.956;2022-10-15T04:52:55;2.05;;;1.42;;
20154;SDS011;10238;49.556;10.956;2022-10-15T04:55:46;2.05;;;1.90;;
20154;SDS011;10238;49.556;10.956;2022-10-15T04:58:36;1.38;;;1.27;;
20154;SDS011;10238;49.556;10.956;2022-10-15T05:01:25;1.60;;;1.50;;
20154;SDS011;10238;49.556;10.956;2022-10-15T05:04:13;2.08;;;1.42;;
20154;SDS011;10238;49.556;10.956;2022-10-15T05:07:02;1.58;;;1.48;;
20154;SDS011;10238;49.556;10.956;2022-10-15T05:09:50;1.60;;;1.50;;
20154;SDS011;10238;49.556;10.956;2022-10-15T05:12:39;3.13;;;1.88;;
20154;SDS011;10238;49.556;10.956;2022-10-15T05:15:30;1.60;;;1.50;;
20154;SDS011;10238;49.556;10.956;2022-10-15T05:18:20;2.05;;;1.88;;
20154;SDS011;10238;49.556;10.956;2022-10-15T05:21:09;2.17;;;1.67;;
20154;SDS011;10238;49.556;10.956;2022-10-15T05:23:59;1.38;;;1.30;;
20154;SDS011;10238;49.556;10.956;2022-10-15T05:26:47;2.80;;;1.90;;
20154;SDS011;10238;49.556;10.956;2022-10-15T05:29:36;1.58;;;1.50;;
20154;SDS011;10238;49.556;10.956;2022-10-15T05:32:25;2.95;;;2.00;;
20154;SDS011;10238;49.556;10.956;2022-10-15T05:35:16;1.58;;;1.48;;
20154;SDS011;10238;49.556;10.956;2022-10-15T05:38:05;2.75;;;2.00;;
20154;SDS011;10238;49.556;10.956;2022-10-15T05:40:53;4.22;;;1.92;;
20154;SDS011;10238;49.556;10.956;2022-10-15T05:43:46;2.30;;;2.10;;
20154;SDS011;10238;49.556;10.956;2022-10-15T05:46:37;3.90;;;1.95;;
20154;SDS011;10238;49.556;10.956;2022-10-15T05:49:25;2.33;;;2.13;;
20154;SDS011;10238;49.556;10.956;2022-10-15T05:52:13;3.22;;;2.05;;
20154;SDS011;10238;49.556;10.956;2022-10-15T05:55:01;2.00;;;1.88;;
20154;SDS011;10238;49.556;10.956;2022-10-15T05:57:53;6.10;;;2.50;;
20154;SDS011;10238;49.556;10.956;2022-10-15T06:00:57;2.95;;;2.42;;
20154;SDS011;10238;49.556;10.956;2022-10-15T06:03:50;2.58;;;2.20;;
20154;SDS011;10238;49.556;10.956;2022-10-15T06:06:41;2.50;;;2.30;;
20154;SDS011;10238;49.556;10.956;2022-10-15T06:09:29;2.53;;;1.90;;
20154;SDS011;10238;49.556;10.956;2022-10-15T06:12:17;2.22;;;2.03;;
20154;SDS011;10238;49.556;10.956;2022-10-15T06:15:06;2.30;;;2.10;;
20154;SDS011;10238;49.556;10.956;2022-10-15T06:17:56;3.00;;;1.85;;
20154;SDS011;10238;49.556;10.956;2022-10-15T06:20:50;3.15;;;1.88;;
20154;SDS011;10238;49.556;10.956;2022-10-15T06:23:39;2.70;;;1.95;;
20154;SDS011;10238;49.556;10.956;2022-10-15T06:26:29;1.45;;;1.35;;
20154;SDS011;10238;49.556;10.956;2022-10-15T06:29:17;1.70;;;1.60;;
20154;SDS011;10238;49.556;10.956;2022-10-15T06:32:07;1.60;;;1.50;;
20154;SDS011;10238;49.556;10.956;2022-10-15T06:34:56;1.50;;;1.40;;
20154;SDS011;10238;49.556;10.956;2022-10-15T06:37:45;1.40;;;1.30;;
20154;SDS011;10238;49.556;10.956;2022-10-15T06:40:33;2.38;;;1.30;;
20154;SDS011;10238;49.556;10.956;2022-10-15T06:43:25;2.13;;;1.50;;
20154;SDS011;10238;49.556;10.956;2022-10-15T06:46:17;1.90;;;1.20;;
20154;SDS011;10238;49.556;10.956;2022-10-15T06:49:05;2.38;;;1.60;;
20154;SDS011;10238;49.556;10.956;2022-10-15T06:51:53;1.50;;;1.40;;
20154;SDS011;10238;49.556;10.956;2022-10-15T06:54:49;1.50;;;1.40;;
20154;SDS011;10238;49.556;10.956;2022-10-15T06:57:38;1.52;;;1.38;;
20154;SDS011;10238;49.556;10.956;2022-10-15T07:00:26;3.45;;;1.30;;
20154;SDS011;10238;49.556;10.956;2022-10-15T07:03:14;1.50;;;1.40;;
20154;SDS011;10238;49.556;10.956;2022-10-15T07:06:02;1.75;;;1.25;;
20154;SDS011;10238;49.556;10.956;2022-10-15T07:08:52;2.60;;;1.38;;
20154;SDS011;10238;49.556;10.956;2022-10-15T07:11:41;1.40;;;1.30;;
20154;SDS011;10238;49.556;10.956;2022-10-15T07:14:29;2.15;;;1.50;;
20154;SDS011;10238;49.556;10.956;2022-10-15T07:17:16;1.60;;;1.48;;
20154;SDS011;10238;49.556;10.956;2022-10-15T07:20:05;1.30;;;1.30;;
20154;SDS011;10238;49.556;10.956;2022-10-15T07:22:55;1.55;;;1.50;;
20154;SDS011;10238;49.556;10.956;2022-10-15T07:25:44;1.52;;;1.35;;
20154;SDS011;10238;49.556;10.956;2022-10-15T07:28:33;1.75;;;1.40;;
20154;SDS011;10238;49.556;10.956;2022-10-15T07:31:21;1.35;;;1.35;;
20154;SDS011;10238;49.556;10.956;2022-10-15T07:34:10;1.15;;;1.15;;
20154;SDS011;10238;49.556;10.956;2022-10-15T07:36:58;1.48;;;1.40;;
20154;SDS011;10238;49.556;10.956;2022-10-15T07:39:46;2.05;;;1.88;;
20154;SDS011;10238;49.556;10.956;2022-10-15T07:42:34;2.63;;;2.42;;
20154;SDS011;10238;49.556;10.956;2022-10-15T07:45:23;1.70;;;1.60;;
20154;SDS011;10238;49.556;10.956;2022-10-15T07:48:12;1.38;;;1.38;;
20154;SDS011;10238;49.556;10.956;2022-10-15T07:51:01;2.28;;;2.08;;
20154;SDS011;10238;49.556;10.956;2022-10-15T07:53:51;2.67;;;2.47;;
20154;SDS011;10238;49.556;10.956;2022-10-15T07:56:39;3.53;;;3.22;;
20154;SDS011;10238;49.556;10.956;2022-10-15T07:59:27;2.45;;;2.25;;
20154;SDS011;10238;49.556;10.956;2022-10-15T08:02:16;5.22;;;3.17;;
20154;SDS011;10238;49.556;10.956;2022-10-15T08:05:07;2.95;;;2.55;;
20154;SDS011;10238;49.556;10.956;2022-10-15T08:07:55;3.13;;;2.78;;
20154;SDS011;10238;49.556;10.956;2022-10-15T08:10:43;3.35;;;2.40;;
20154;SDS011;10238;49.556;10.956;2022-10-15T08:13:31;2.78;;;2.58;;
20154;SDS011;10238;49.556;10.956;2022-10-15T08:16:19;2.70;;;2.50;;
20154;SDS011;10238;49.556;10.956;2022-10-15T08:19:08;3.35;;;3.05;;
20154;SDS011;10238;49.556;10.956;2022-10-15T08:21:56;2.63;;;2.38;;
20154;SDS011;10238;49.556;10.956;2022-10-15T08:24:44;3.33;;;1.60;;
20154;SDS011;10238;49.556;10.956;2022-10-15T08:27:32;1.90;;;1.80;;
20154;SDS011;10238;49.556;10.956;2022-10-15T08:30:21;2.40;;;2.20;;
20154;SDS011;10238;49.556;10.956;2022-10-15T08:33:08;2.58;;;1.60;;
20154;SDS011;10238;49.556;10.956;2022-10-15T08:35:58;1.50;;;1.27;;
20154;SDS011;10238;49.556;10.956;2022-10-15T08:38:45;2.67;;;1.80;;
20154;SDS011;10238;49.556;10.956;2022-10-15T08:41:34;4.65;;;4.35;;
20154;SDS011;10238;49.556;10.956;2022-10-15T08:44:25;4.30;;;4.10;;
20154;SDS011;10238;49.556;10.956;2022-10-15T08:47:18;3.13;;;2.90;;
20154;SDS011;10238;49.556;10.956;2022-10-15T08:50:16;2.78;;;2.67;;
20154;SDS011;10238;49.556;10.956;2022-10-15T08:53:14;2.90;;;2.70;;
20154;SDS011;10238;49.556;10.956;2022-10-15T08:56:12;3.60;;;2.45;;
20154;SDS011;10238;49.556;10.956;2022-10-15T08:59:06;2.83;;;2.15;;
20154;SDS011;10238;49.556;10.956;2022-10-15T09:02:12;2.25;;;1.60;;
20154;SDS011;10238;49.556;10.956;2022-10-15T09:05:12;3.10;;;1.83;;
20154;SDS011;10238;49.556;10.956;2022-10-15T09:08:24;1.60;;;1.60;;
20154;SDS011;10238;49.556;10.956;2022-10-15T09:11:21;1.45;;;1.40;;
20154;SDS011;10238;49.556;10.956;2022-10-15T09:14:17;1.58;;;1.55;;
20154;SDS011;10238;49.556;10.956;2022-10-15T09:17:13;2.03;;;1.92;;
20154;SDS011;10238;49.556;10.956;2022-10-15T09:20:12;3.75;;;1.58;;
20154;SDS011;10238;49.556;10.956;2022-10-15T09:23:07;1.80;;;1.70;;
20154;SDS011;10238;49.556;10.956;2022-10-15T09:26:06;2.83;;;1.60;;
20154;SDS011;10238;49.556;10.956;2022-10-15T09:29:05;2.15;;;1.88;;
20154;SDS011;10238;49.556;10.956;2022-10-15T09:32:04;2.75;;;2.65;;
20154;SDS011;10238;49.556;10.956;2022-10-15T09:35:00;3.58;;;3.10;;
20154;SDS011;10238;49.556;10.956;2022-10-15T09:37:59;2.08;;;1.98;;
20154;SDS011;10238;49.556;10.956;2022-10-15T09:41:00;3.65;;;3.53;;
20154;SDS011;10238;49.556;10.956;2022-10-15T09:44:01;3.95;;;3.75;;
20154;SDS011;10238;49.556;10.956;2022-10-15T09:46:55;4.57;;;4.38;;
20154;SDS011;10238;49.556;10.956;2022-10-15T09:49:43;2.25;;;2.03;;
20154;SDS011;10238;49.556;10.956;2022-10-15T09:52:38;1.88;;;1.80;;
20154;SDS011;10238;49.556;10.956;2022-10-15T09:55:49;2.08;;;1.98;;
20154;SDS011;10238;49.556;10.956;2022-10-15T09:58:46;1.85;;;1.75;;
20154;SDS011;10238;49.556;10.956;2022-10-15T10:01:39;1.83;;;1.73;;
20154;SDS011;10238;49.556;10.956;2022-10-15T10:04:41;1.73;;;1.65;;
20154;SDS011;10238;49.556;10.956;2022-10-15T10:07:30;1.65;;;1.52;;
20154;SDS011;10238;49.556;10.956;2022-10-15T10:10:21;2.67;;;2.03;;
20154;SDS011;10238;49.556;10.956;2022-10-15T10:13:21;1.83;;;1.17;;
20154;SDS011;10238;49.556;10.956;2022-10-15T10:16:12;1.20;;;1.20;;
20154;SDS011;10238;49.556;10.956;2022-10-15T10:19:03;0.98;;;0.90;;
20154;SDS011;10238;49.556;10.956;2022-10-15T10:22:04;1.00;;;1.00;;
20154;SDS011;10238;49.556;10.956;2022-10-15T10:24:57;2.25;;;1.50;;
20154;SDS011;10238;49.556;10.956;2022-10-15T10:27:46;1.00;;;1.00;;
20154;SDS011;10238;49.556;10.956;2022-10-15T10:30:34;3.10;;;1.30;;
20154;SDS011;10238;49.556;10.956;2022-10-15T10:33:26;1.10;;;1.10;;
20154;SDS011;10238;49.556;10.956;2022-10-15T10:36:18;1.75;;;1.40;;
20154;SDS011;10238;49.556;10.956;2022-10-15T10:39:13;1.50;;;1.30;;
20154;SDS011;10238;49.556;10.956;2022-10-15T10:42:12;1.30;;;1.30;;
20154;SDS011;10238;49.556;10.956;2022-10-15T10:45:15;1.10;;;1.10;;
20154;SDS011;10238;49.556;10.956;2022-10-15T10:48:16;1.20;;;1.20;;
20154;SDS011;10238;49.556;10.956;2022-10-15T10:51:10;1.60;;;1.50;;
20154;SDS011;10238;49.556;10.956;2022-10-15T10:54:03;1.42;;;1.42;;
20154;SDS011;10238;49.556;10.956;2022-10-15T10:56:59;2.72;;;1.45;;
20154;SDS011;10238;49.556;10.956;2022-10-15T10:59:49;1.77;;;1.33;;
20154;SDS011;10238;49.556;10.956;2022-10-15T11:02:39;1.42;;;1.33;;
20154;SDS011;10238;49.556;10.956;2022-10-15T11:05:29;1.33;;;1.30;;
20154;SDS011;10238;49.556;10.956;2022-10-15T11:08:22;1.70;;;1.60;;
20154;SDS011;10238;49.556;10.956;2022-10-15T11:11:20;2.75;;;2.10;;
20154;SDS011;10238;49.556;10.956;2022-10-15T11:14:18;1.60;;;1.60;;
20154;SDS011;10238;49.556;10.956;2022-10-15T11:17:13;2.05;;;1.90;;
20154;SDS011;10238;49.556;10.956;2022-10-15T11:20:13;2.53;;;2.17;;
20154;SDS011;10238;49.556;10.956;2022-10-15T11:23:35;1.90;;;1.80;;
20154;SDS011;10238;49.556;10.956;2022-10-15T11:26:52;2.08;;;1.98;;
20154;SDS011;10238;49.556;10.956;2022-10-15T11:29:57;2.63;;;2.42;;
20154;SDS011;10238;49.556;10.956;2022-10-15T11:32:52;2.00;;;1.90;;
20154;SDS011;10238;49.556;10.956;2022-10-15T11:35:56;3.53;;;3.33;;
20154;SDS011;10238;49.556;10.956;2022-10-15T11:38:56;3.88;;;3.60;;
20154;SDS011;10238;49.556;10.956;2022-10-15T11:41:56;5.07;;;4.87;;
20154;SDS011;10238;49.556;10.956;2022-10-15T11:44:57;2.70;;;2.50;;
20154;SDS011;10238;49.556;10.956;2022-10-15T11:48:12;3.17;;;1.67;;
20154;SDS011;10238;49.556;10.956;2022-10-15T11:51:09;2.38;;;1.23;;
20154;SDS011;10238;49.556;10.956;2022-10-15T11:54:20;1.73;;;1.63;;
20154;SDS011;10238;49.556;10.956;2022-10-15T11:57:15;1.95;;;1.25;;
20154;SDS011;10238;49.556;10.956;2022-10-15T12:00:11;1.20;;;1.20;;
20154;SDS011;10238;49.556;10.956;2022-10-15T12:03:10;1.48;;;1.40;;
20154;SDS011;10238;49.556;10.956;2022-10-15T12:06:02;1.60;;;1.60;;
20154;SDS011;10238;49.556;10.956;2022-10-15T12:08:54;1.25;;;1.20;;
20154;SDS011;10238;49.556;10.956;2022-10-15T12:11:47;1.60;;;1.50;;
20154;SDS011;10238;49.556;10.956;2022-10-15T12:14:39;4.90;;;1.85;;
20154;SDS011;10238;49.556;10.956;2022-10-15T12:17:36;1.50;;;1.40;;
20154;SDS011;10238;49.556;10.956;2022-10-15T12:20:31;1.50;;;1.40;;
20154;SDS011;10238;49.556;10.956;2022-10-15T12:23:22;1.70;;;1.40;;
20154;SDS011;10238;49.556;10.956;2022-10-15T12:26:24;2.13;;;1.90;;
20154;SDS011;10238;49.556;10.956;2022-10-15T12:29:19;2.78;;;2.67;;
20154;SDS011;10238;49.556;10.956;2022-10-15T12:32:19;2.55;;;2.40;;
20154;SDS011;10238;49.556;10.956;2022-10-15T12:35:17;3.47;;;3.35;;
20154;SDS011;10238;49.556;10.956;2022-10-15T12:38:18;3.65;;;3.53;;
20154;SDS011;10238;49.556;10.956;2022-10-15T12:41:12;4.45;;;4.20;;
20154;SDS011;10238;49.556;10.956;2022-10-15T12:44:04;3.33;;;3.05;;
20154;SDS011;10238;49.556;10.956;2022-10-15T12:47:02;2.05;;;1.60;;
20154;SDS011;10238;49.556;10.956;2022-10-15T12:49:58;1.60;;;1.58;;
20154;SDS011;10238;49.556;10.956;2022-10-15T12:52:51;1.42;;;1.33;;
20154;SDS011;10238;49.556;10.956;2022-10-15T12:55:42;1.75;;;1.42;;
20154;SDS011;10238;49.556;10.956;2022-10-15T12:58:30;1.88;;;1.77;;
20154;SDS011;10238;49.556;10.956;2022-10-15T13:01:26;4.10;;;3.90;;
20154;SDS011;10238;49.556;10.956;2022-10-15T13:04:16;2.80;;;2.70;;
20154;SDS011;10238;49.556;10.956;2022-10-15T13:07:05;2.05;;;1.40;;
20154;SDS011;10238;49.556;10.956;2022-10-15T13:09:58;3.47;;;3.35;;
20154;SDS011;10238;49.556;10.956;2022-10-15T13:12:49;5.45;;;5.15;;
20154;SDS011;10238;49.556;10.956;2022-10-15T13:15:39;5.47;;;5.28;;
20154;SDS011;10238;49.556;10.956;2022-10-15T13:18:27;3.17;;;3.08;;
20154;SDS011;10238;49.556;10.956;2022-10-15T13:21:18;6.07;;;5.88;;
20154;SDS011;10238;49.556;10.956;2022-10-15T13:24:05;8.02;;;7.47;;
20154;SDS011;10238;49.556;10.956;2022-10-15T13:26:59;5.63;;;5.43;;
20154;SDS011;10238;49.556;10.956;2022-10-15T13:29:54;4.25;;;4.05;;
20154;SDS011;10238;49.556;10.956;2022-10-15T13:32:44;4.45;;;4.25;;
20154;SDS011;10238;49.556;10.956;2022-10-15T13:35:35;3.60;;;3.50;;
20154;SDS011;10238;49.556;10.956;2022-10-15T13:38:26;2.95;;;2.85;;
20154;SDS011;10238;49.556;10.956;2022-10-15T13:41:14;2.53;;;2.42;;
20154;SDS011;10238;49.556;10.956;2022-10-15T13:44:17;2.70;;;2.60;;
20154;SDS011;10238;49.556;10.956;2022-10-15T13:47:27;2.75;;;2.65;;
20154;SDS011;10238;49.556;10.956;2022-10-15T13:50:18;2.35;;;2.28;;
20154;SDS011;10238;49.556;10.956;2022-10-15T13:53:11;2.70;;;2.60;;
20154;SDS011;10238;49.556;10.956;2022-10-15T13:56:17;2.70;;;2.60;;
20154;SDS011;10238;49.556;10.956;2022-10-15T13:59:11;2.45;;;2.35;;
20154;SDS011;10238;49.556;10.956;2022-10-15T14:02:03;3.00;;;2.90;;
20154;SDS011;10238;49.556;10.956;2022-10-15T14:08:03;2.97;;;2.88;;
20154;SDS011;10238;49.556;10.956;2022-10-15T14:10:52;2.60;;;2.50;;
20154;SDS011;10238;49.556;10.956;2022-10-15T14:13:44;2.70;;;2.60;;
20154;SDS011;10238;49.556;10.956;2022-10-15T14:16:34;2.30;;;2.25;;
20154;SDS011;10238;49.556;10.956;2022-10-15T14:19:26;1.92;;;1.80;;
20154;SDS011;10238;49.556;10.956;2022-10-15T14:22:17;2.40;;;2.22;;
20154;SDS011;10238;49.556;10.956;2022-10-15T14:25:08;1.83;;;1.73;;
20154;SDS011;10238;49.556;10.956;2022-10-15T14:28:02;2.42;;;2.22;;
20154;SDS011;10238;49.556;10.956;2022-10-15T14:30:51;3.00;;;2.75;;
20154;SDS011;10238;49.556;10.956;2022-10-15T14:36:39;2.78;;;2.60;;
20154;SDS011;10238;49.556;10.956;2022-10-15T14:39:29;2.10;;;2.00;;
20154;SDS011;10238;49.556;10.956;2022-10-15T14:42:25;3.20;;;3.00;;
20154;SDS011;10238;49.556;10.956;2022-10-15T14:45:19;4.28;;;3.88;;
20154;SDS011;10238;49.556;10.956;2022-10-15T14:48:13;3.65;;;3.42;;
20154;SDS011;10238;49.556;10.956;2022-10-15T14:51:06;3.40;;;3.20;;
20154;SDS011;10238;49.556;10.956;2022-10-15T14:54:02;2.90;;;2.70;;
20154;SDS011;10238;49.556;10.956;2022-10-15T14:56:50;3.40;;;3.30;;
20154;SDS011;10238;49.556;10.956;2022-10-15T14:59:38;3.42;;;3.33;;
20154;SDS011;10238;49.556;10.956;2022-10-15T15:02:27;3.33;;;3.05;;
20154;SDS011;10238;49.556;10.956;2022-10-15T15:05:18;3.65;;;3.10;;
20154;SDS011;10238;49.556;10.956;2022-10-15T15:08:08;3.47;;;3.30;;
20154;SDS011;10238;49.556;10.956;2022-10-15T15:10:58;3.28;;;3.17;;
20154;SDS011;10238;49.556;10.956;2022-10-15T15:13:48;3.63;;;3.33;;
20154;SDS011;10238;49.556;10.956;2022-10-15T15:16:36;3.50;;;3.20;;
20154;SDS011;10238;49.556;10.956;2022-10-15T15:19:24;3.30;;;3.08;;
20154;SDS011;10238;49.556;10.956;2022-10-15T15:22:14;3.22;;;3.08;;
20154;SDS011;10238;49.556;10.956;2022-10-15T15:25:12;3.65;;;3.45;;
20154;SDS011;10238;49.556;10.956;2022-10-15T15:28:02;3.22;;;3.03;;
20154;SDS011;10238;49.556;10.956;2022-10-15T15:30:54;3.30;;;3.08;;
20154;SDS011;10238;49.556;10.956;2022-10-15T15:33:44;2.97;;;2.88;;
20154;SDS011;10238;49.556;10.956;2022-10-15T15:36:32;3.50;;;3.30;;
20154;SDS011;10238;49.556;10.956;2022-10-15T15:39:21;4.10;;;2.60;;
20154;SDS011;10238;49.556;10.956;2022-10-15T15:42:10;4.07;;;3.22;;
20154;SDS011;10238;49.556;10.956;2022-10-15T15:44:59;3.08;;;2.97;;
20154;SDS011;10238;49.556;10.956;2022-10-15T15:47:48;3.35;;;3.15;;
20154;SDS011;10238;49.556;10.956;2022-10-15T15:50:36;3.05;;;2.95;;
20154;SDS011;10238;49.556;10.956;2022-10-15T15:53:23;5.70;;;3.35;;
20154;SDS011;10238;49.556;10.956;2022-10-15T15:56:13;2.90;;;2.70;;
20154;SDS011;10238;49.556;10.956;2022-10-15T15:59:03;3.67;;;3.10;;
20154;SDS011;10238;49.556;10.956;2022-10-15T16:01:51;3.58;;;3.10;;
20154;SDS011;10238;49.556;10.956;2022-10-15T16:04:39;3.25;;;2.95;;
20154;SDS011;10238;49.556;10.956;2022-10-15T16:07:29;2.92;;;2.60;;
20154;SDS011;10238;49.556;10.956;2022-10-15T16:10:18;2.30;;;2.20;;
20154;SDS011;10238;49.556;10.956;2022-10-15T16:13:11;4.20;;;3.80;;
20154;SDS011;10238;49.556;10.956;2022-10-15T16:16:04;3.55;;;3.13;;
20154;SDS011;10238;49.556;10.956;2022-10-15T16:18:53;6.95;;;4.70;;
20154;SDS011;10238;49.556;10.956;2022-10-15T16:21:41;5.22;;;4.68;;
20154;SDS011;10238;49.556;10.956;2022-10-15T16:24:29;8.23;;;3.42;;
20154;SDS011;10238;49.556;10.956;2022-10-15T16:27:16;6.00;;;3.33;;
20154;SDS011;10238;49.556;10.956;2022-10-15T16:30:09;6.28;;;2.85;;
20154;SDS011;10238;49.556;10.956;2022-10-15T16:32:58;3.58;;;2.20;;
20154;SDS011;10238;49.556;10.956;2022-10-15T16:35:49;2.80;;;2.30;;
20154;SDS011;10238;49.556;10.956;2022-10-15T16:41:27;4.80;;;4.25;;
20154;SDS011;10238;49.556;10.956;2022-10-15T16:44:15;4.40;;;3.83;;
20154;SDS011;10238;49.556;10.956;2022-10-15T16:47:04;5.15;;;4.82;;
20154;SDS011;10238;49.556;10.956;2022-10-15T16:49:55;5.03;;;4.25;;
20154;SDS011;10238;49.556;10.956;2022-10-15T16:52:43;2.80;;;2.60;;
20154;SDS011;10238;49.556;10.956;2022-10-15T16:55:31;2.30;;;2.10;;
20154;SDS011;10238;49.556;10.956;2022-10-15T16:58:19;3.42;;;2.30;;
20154;SDS011;10238;49.556;10.956;2022-10-15T17:01:11;2.45;;;2.28;;
20154;SDS011;10238;49.556;10.956;2022-10-15T17:04:03;2.72;;;2.53;;
20154;SDS011;10238;49.556;10.956;2022-10-15T17:06:51;5.88;;;3.80;;
20154;SDS011;10238;49.556;10.956;2022-10-15T17:09:44;3.63;;;3.42;;
20154;SDS011;10238;49.556;10.956;2022-10-15T17:12:34;3.40;;;3.17;;
20154;SDS011;10238;49.556;10.956;2022-10-15T17:15:25;4.90;;;3.22;;